createdAt,value
2023-05-09T00:00:11.730Z,76050.06
2023-05-09T00:10:15.924Z,76054.09
2023-05-09T00:20:19.186Z,76054.09
2023-05-09T00:30:23.597Z,76048.03
2023-05-09T00:40:28.238Z,76072.31
2023-05-09T00:50:32.007Z,76096.59
2023-05-09T01:00:39.083Z,76122.91
2023-05-09T01:10:57.121Z,76131.00
2023-05-09T01:21:10.509Z,76139.09
2023-05-09T01:31:15.942Z,76171.50
2023-05-09T01:41:21.543Z,76187.69
2023-05-09T01:51:26.675Z,76187.69
2023-05-09T02:01:30.765Z,76171.50
2023-05-09T02:11:35.075Z,76177.56
2023-05-09T02:21:38.741Z,76195.78
2023-05-09T02:31:41.574Z,76226.16
2023-05-09T02:41:48.869Z,76250.44
2023-05-09T02:51:51.280Z,76282.81
2023-05-09T03:01:56.538Z,76292.94
2023-05-09T03:12:01.503Z,76266.63
2023-05-09T03:22:06.088Z,76199.81
2023-05-09T03:32:15.769Z,76112.78
2023-05-09T03:42:20.473Z,76070.28
2023-05-09T03:52:27.332Z,76021.72
2023-05-09T04:02:33.110Z,75928.63
2023-05-09T04:12:40.979Z,75833.50
2023-05-09T04:22:45.395Z,75756.59
2023-05-09T04:32:50.181Z,75831.47
2023-05-09T04:42:53.830Z,76013.63
2023-05-09T04:53:00.834Z,75956.94
2023-05-09T05:03:07.827Z,75823.38
2023-05-09T05:13:13.183Z,75730.28
2023-05-09T05:23:19.770Z,75649.31
2023-05-09T05:33:21.994Z,75641.22
2023-05-09T05:43:26.587Z,75633.13
2023-05-09T05:53:31.533Z,75542.06
2023-05-09T06:03:35.253Z,75410.53
2023-05-09T06:13:40.854Z,75345.78
2023-05-09T06:24:05.912Z,75272.94
2023-05-09T06:34:13.910Z,75366.00
2023-05-09T06:44:16.103Z,75270.91
2023-05-09T06:54:21.470Z,75228.41
2023-05-09T07:04:26.821Z,75210.19
2023-05-09T07:14:34.501Z,75212.22
2023-05-09T07:24:39.123Z,75191.97
2023-05-09T07:34:41.296Z,75086.75
2023-05-09T07:44:49.411Z,75153.53
2023-05-09T07:54:51.589Z,75131.28
2023-05-09T08:04:53.909Z,75187.94
2023-05-09T08:14:58.355Z,75159.59
2023-05-09T08:25:05.424Z,75218.28
2023-05-09T08:35:09.865Z,75159.59
2023-05-09T08:45:19.533Z,75191.97
2023-05-09T08:55:26.387Z,75224.34
2023-05-09T09:15:40.825Z,75222.34
2023-05-09T09:25:51.026Z,75204.13
2023-05-09T09:35:57.180Z,75212.22
2023-05-09T09:46:08.223Z,75232.47
2023-05-09T09:56:10.947Z,75214.25
2023-05-09T10:06:17.846Z,75244.59
2023-05-09T10:16:35.526Z,75252.69
2023-05-09T10:26:46.956Z,75252.69
2023-05-09T10:36:57.774Z,75248.66
2023-05-09T10:47:06.018Z,75232.47
2023-05-09T10:57:11.316Z,75224.34
2023-05-09T11:07:27.125Z,75212.22
2023-05-09T11:17:32.744Z,75183.88
2023-05-09T11:27:40.336Z,75204.13
2023-05-09T11:37:50.366Z,75163.66
2023-05-09T11:47:55.108Z,75113.06
2023-05-09T11:57:57.454Z,75139.38
2023-05-09T12:08:08.703Z,75117.13
2023-05-09T12:18:10.983Z,75102.94
2023-05-09T12:28:14.753Z,75107.00
2023-05-09T12:38:24.012Z,75058.44
2023-05-09T12:48:26.500Z,75052.38
2023-05-09T12:58:34.982Z,75042.25
2023-05-09T13:08:39.496Z,75042.25
2023-05-09T13:18:41.954Z,74995.72
2023-05-09T13:28:46.663Z,74987.63
2023-05-09T13:38:55.033Z,74975.47
2023-05-09T13:49:01.903Z,74989.63
2023-05-09T13:59:05.222Z,74961.31
2023-05-09T14:09:07.520Z,74999.75
2023-05-09T14:19:13.569Z,74967.38
2023-05-09T14:29:17.846Z,74979.53
2023-05-09T14:39:22.790Z,74924.88
2023-05-09T14:49:25.053Z,74932.97
2023-05-09T14:59:32.810Z,74932.97
2023-05-09T15:09:41.983Z,74884.41
2023-05-09T15:19:49.470Z,74912.75
2023-05-09T15:29:54.874Z,74928.94
2023-05-09T15:39:57.962Z,74941.06
2023-05-09T15:50:02.788Z,74928.94
2023-05-09T16:00:07.841Z,74941.06
2023-05-09T16:10:15.196Z,74941.06
2023-05-09T16:20:20.155Z,74939.06
2023-05-09T16:30:24.516Z,74928.94
2023-05-09T16:40:26.792Z,74943.09
2023-05-09T16:50:32.062Z,74949.16
2023-05-09T17:00:34.207Z,74949.16
2023-05-09T17:10:41.976Z,74957.25
2023-05-09T17:20:49.512Z,74955.25
2023-05-09T17:30:51.965Z,74967.38
2023-05-09T17:40:56.761Z,74983.56
2023-05-09T17:50:59.143Z,75003.81
2023-05-09T18:01:01.374Z,75036.19
2023-05-09T18:11:03.771Z,75050.34
2023-05-09T18:21:15.946Z,75084.75
2023-05-09T18:31:18.419Z,75102.94
2023-05-09T18:41:20.859Z,75129.25
2023-05-09T18:51:25.537Z,75149.50
2023-05-09T19:01:30.560Z,75183.88
2023-05-09T19:11:38.309Z,75196.03
2023-05-09T19:21:43.699Z,75224.34
2023-05-09T19:31:48.458Z,75254.72
2023-05-09T19:41:50.581Z,75281.03
2023-05-09T19:51:57.524Z,75299.22
2023-05-09T20:02:04.657Z,75335.66
2023-05-09T20:12:12.626Z,75327.56
2023-05-09T20:22:17.391Z,75359.94
2023-05-09T20:32:26.614Z,75390.28
2023-05-09T20:42:33.517Z,75398.38
2023-05-09T20:52:36.066Z,75414.56
2023-05-09T21:02:38.283Z,75436.84
2023-05-09T21:12:40.739Z,75455.06
2023-05-09T21:22:43.180Z,75467.19
2023-05-09T21:32:45.427Z,75483.38
2023-05-09T21:42:50.068Z,75511.72
2023-05-09T21:52:56.520Z,75536.00
2023-05-09T22:02:59.159Z,75548.13
2023-05-09T22:13:05.936Z,75576.47
2023-05-09T22:23:10.441Z,75590.63
2023-05-09T22:33:14.752Z,75588.63
2023-05-09T22:43:17.073Z,75606.84
2023-05-09T22:53:24.794Z,75621.00
2023-05-09T23:03:27.244Z,75645.28
2023-05-09T23:13:29.708Z,75651.34
2023-05-09T23:23:34.797Z,75665.53
2023-05-09T23:33:39.269Z,75693.84
2023-05-09T23:43:47.571Z,75716.13
2023-05-09T23:53:49.843Z,75730.28
